sensor_id;sensor_type;location;lat;lon;timestamp;P1;durP1;ratioP1;P2;durP2;ratioP2
9761;SDS011;4920;49.594;11.022;2023-07-13T00:01:15;2.83;;;1.95;;
9761;SDS011;4920;49.594;11.022;2023-07-13T00:03:44;3.00;;;1.80;;
9761;SDS011;4920;49.594;11.022;2023-07-13T00:06:13;2.35;;;1.90;;
9761;SDS011;4920;49.594;11.022;2023-07-13T00:08:42;4.22;;;1.95;;
9761;SDS011;4920;49.594;11.022;2023-07-13T00:11:11;2.47;;;1.73;;
9761;SDS011;4920;49.594;11.022;2023-07-13T00:13:40;2.28;;;1.63;;
9761;SDS011;4920;49.594;11.022;2023-07-13T00:16:13;5.88;;;1.80;;
9761;SDS011;4920;49.594;11.022;2023-07-13T00:18:42;4.15;;;1.70;;
9761;SDS011;4920;49.594;11.022;2023-07-13T00:21:11;2.55;;;1.70;;
9761;SDS011;4920;49.594;11.022;2023-07-13T00:23:40;2.13;;;1.70;;
9761;SDS011;4920;49.594;11.022;2023-07-13T00:26:10;2.50;;;1.60;;
9761;SDS011;4920;49.594;11.022;2023-07-13T00:28:41;3.08;;;1.83;;
9761;SDS011;4920;49.594;11.022;2023-07-13T00:31:09;3.60;;;1.85;;
9761;SDS011;4920;49.594;11.022;2023-07-13T00:33:41;3.53;;;1.70;;
9761;SDS011;4920;49.594;11.022;2023-07-13T00:36:10;2.95;;;1.67;;
9761;SDS011;4920;49.594;11.022;2023-07-13T00:38:39;5.10;;;1.70;;
9761;SDS011;4920;49.594;11.022;2023-07-13T00:41:08;2.58;;;1.67;;
9761;SDS011;4920;49.594;11.022;2023-07-13T00:43:38;4.90;;;1.77;;
9761;SDS011;4920;49.594;11.022;2023-07-13T00:46:15;3.28;;;1.70;;
9761;SDS011;4920;49.594;11.022;2023-07-13T00:48:47;3.60;;;1.88;;
9761;SDS011;4920;49.594;11.022;2023-07-13T00:51:18;2.40;;;1.75;;
9761;SDS011;4920;49.594;11.022;2023-07-13T00:53:50;3.10;;;1.80;;
9761;SDS011;4920;49.594;11.022;2023-07-13T00:56:20;6.53;;;1.67;;
9761;SDS011;4920;49.594;11.022;2023-07-13T00:58:49;3.05;;;1.60;;
9761;SDS011;4920;49.594;11.022;2023-07-13T01:01:19;3.63;;;1.50;;
9761;SDS011;4920;49.594;11.022;2023-07-13T01:03:48;4.07;;;1.55;;
9761;SDS011;4920;49.594;11.022;2023-07-13T01:06:17;3.28;;;1.67;;
9761;SDS011;4920;49.594;11.022;2023-07-13T01:08:46;3.55;;;1.88;;
9761;SDS011;4920;49.594;11.022;2023-07-13T01:11:18;2.83;;;1.90;;
9761;SDS011;4920;49.594;11.022;2023-07-13T01:13:49;5.25;;;1.98;;
9761;SDS011;4920;49.594;11.022;2023-07-13T01:16:22;4.10;;;1.85;;
9761;SDS011;4920;49.594;11.022;2023-07-13T01:18:54;3.92;;;1.98;;
9761;SDS011;4920;49.594;11.022;2023-07-13T01:21:26;4.28;;;1.95;;
9761;SDS011;4920;49.594;11.022;2023-07-13T01:23:56;4.00;;;1.90;;
9761;SDS011;4920;49.594;11.022;2023-07-13T01:26:24;2.20;;;1.60;;
9761;SDS011;4920;49.594;11.022;2023-07-13T01:28:54;4.32;;;1.85;;
9761;SDS011;4920;49.594;11.022;2023-07-13T01:31:24;2.60;;;1.60;;
9761;SDS011;4920;49.594;11.022;2023-07-13T01:33:53;5.60;;;1.70;;
9761;SDS011;4920;49.594;11.022;2023-07-13T01:36:21;2.67;;;1.88;;
9761;SDS011;4920;49.594;11.022;2023-07-13T01:38:51;4.00;;;1.80;;
9761;SDS011;4920;49.594;11.022;2023-07-13T01:41:20;2.30;;;1.60;;
9761;SDS011;4920;49.594;11.022;2023-07-13T01:43:49;2.35;;;1.55;;
9761;SDS011;4920;49.594;11.022;2023-07-13T01:46:18;2.25;;;1.70;;
9761;SDS011;4920;49.594;11.022;2023-07-13T01:48:50;2.50;;;2.03;;
9761;SDS011;4920;49.594;11.022;2023-07-13T01:51:19;2.55;;;1.77;;
9761;SDS011;4920;49.594;11.022;2023-07-13T01:53:48;5.32;;;1.98;;
9761;SDS011;4920;49.594;11.022;2023-07-13T01:56:19;2.80;;;1.67;;
9761;SDS011;4920;49.594;11.022;2023-07-13T01:58:48;4.05;;;1.90;;
9761;SDS011;4920;49.594;11.022;2023-07-13T02:01:17;2.53;;;1.60;;
9761;SDS011;4920;49.594;11.022;2023-07-13T02:03:46;4.53;;;1.70;;
9761;SDS011;4920;49.594;11.022;2023-07-13T02:06:14;3.20;;;1.88;;
9761;SDS011;4920;49.594;11.022;2023-07-13T02:08:43;2.78;;;1.52;;
9761;SDS011;4920;49.594;11.022;2023-07-13T02:11:12;2.58;;;1.60;;
9761;SDS011;4920;49.594;11.022;2023-07-13T02:13:42;3.03;;;1.80;;
9761;SDS011;4920;49.594;11.022;2023-07-13T02:16:11;3.03;;;1.88;;
9761;SDS011;4920;49.594;11.022;2023-07-13T02:18:40;4.75;;;1.83;;
9761;SDS011;4920;49.594;11.022;2023-07-13T02:21:09;3.03;;;1.60;;
9761;SDS011;4920;49.594;11.022;2023-07-13T02:23:38;2.15;;;1.60;;
9761;SDS011;4920;49.594;11.022;2023-07-13T02:26:07;3.10;;;1.65;;
9761;SDS011;4920;49.594;11.022;2023-07-13T02:28:36;2.38;;;1.67;;
9761;SDS011;4920;49.594;11.022;2023-07-13T02:31:07;2.03;;;1.55;;
9761;SDS011;4920;49.594;11.022;2023-07-13T02:33:37;3.40;;;1.90;;
9761;SDS011;4920;49.594;11.022;2023-07-13T02:36:05;3.33;;;1.75;;
9761;SDS011;4920;49.594;11.022;2023-07-13T02:38:35;6.00;;;2.00;;
9761;SDS011;4920;49.594;11.022;2023-07-13T02:41:05;2.47;;;1.80;;
9761;SDS011;4920;49.594;11.022;2023-07-13T02:43:36;2.00;;;1.77;;
9761;SDS011;4920;49.594;11.022;2023-07-13T02:46:09;3.03;;;1.67;;
9761;SDS011;4920;49.594;11.022;2023-07-13T02:48:38;2.08;;;1.65;;
9761;SDS011;4920;49.594;11.022;2023-07-13T02:51:07;4.07;;;2.40;;
9761;SDS011;4920;49.594;11.022;2023-07-13T02:53:36;2.47;;;1.60;;
9761;SDS011;4920;49.594;11.022;2023-07-13T02:56:05;3.78;;;1.95;;
9761;SDS011;4920;49.594;11.022;2023-07-13T02:58:35;3.25;;;1.90;;
9761;SDS011;4920;49.594;11.022;2023-07-13T03:01:06;3.28;;;1.80;;
9761;SDS011;4920;49.594;11.022;2023-07-13T03:03:37;3.35;;;1.80;;
9761;SDS011;4920;49.594;11.022;2023-07-13T03:06:06;3.17;;;1.90;;
9761;SDS011;4920;49.594;11.022;2023-07-13T03:08:44;6.13;;;1.98;;
9761;SDS011;4920;49.594;11.022;2023-07-13T03:11:14;4.18;;;2.03;;
9761;SDS011;4920;49.594;11.022;2023-07-13T03:13:49;2.08;;;1.67;;
9761;SDS011;4920;49.594;11.022;2023-07-13T03:16:19;2.70;;;1.65;;
9761;SDS011;4920;49.594;11.022;2023-07-13T03:18:51;5.15;;;1.90;;
9761;SDS011;4920;49.594;11.022;2023-07-13T03:21:19;3.50;;;2.03;;
9761;SDS011;4920;49.594;11.022;2023-07-13T03:23:48;5.40;;;2.10;;
9761;SDS011;4920;49.594;11.022;2023-07-13T03:26:18;4.10;;;1.92;;
9761;SDS011;4920;49.594;11.022;2023-07-13T03:28:48;3.08;;;2.00;;
9761;SDS011;4920;49.594;11.022;2023-07-13T03:31:21;3.33;;;1.90;;
9761;SDS011;4920;49.594;11.022;2023-07-13T03:33:53;4.47;;;1.90;;
9761;SDS011;4920;49.594;11.022;2023-07-13T03:36:23;4.43;;;2.03;;
9761;SDS011;4920;49.594;11.022;2023-07-13T03:38:57;3.03;;;2.25;;
9761;SDS011;4920;49.594;11.022;2023-07-13T03:41:44;4.32;;;1.80;;
9761;SDS011;4920;49.594;11.022;2023-07-13T03:44:13;5.45;;;2.10;;
9761;SDS011;4920;49.594;11.022;2023-07-13T03:46:41;3.80;;;1.80;;
9761;SDS011;4920;49.594;11.022;2023-07-13T03:49:12;3.10;;;1.90;;
9761;SDS011;4920;49.594;11.022;2023-07-13T03:51:40;4.07;;;1.90;;
9761;SDS011;4920;49.594;11.022;2023-07-13T03:54:09;4.10;;;2.10;;
9761;SDS011;4920;49.594;11.022;2023-07-13T03:56:38;3.25;;;1.90;;
9761;SDS011;4920;49.594;11.022;2023-07-13T03:59:08;5.50;;;1.92;;
9761;SDS011;4920;49.594;11.022;2023-07-13T04:01:37;4.40;;;2.00;;
9761;SDS011;4920;49.594;11.022;2023-07-13T04:04:12;4.97;;;1.92;;
9761;SDS011;4920;49.594;11.022;2023-07-13T04:06:42;3.47;;;1.95;;
9761;SDS011;4920;49.594;11.022;2023-07-13T04:09:11;4.60;;;2.00;;
9761;SDS011;4920;49.594;11.022;2023-07-13T04:11:41;3.70;;;1.90;;
9761;SDS011;4920;49.594;11.022;2023-07-13T04:14:09;3.20;;;2.10;;
9761;SDS011;4920;49.594;11.022;2023-07-13T04:16:38;3.00;;;2.10;;
9761;SDS011;4920;49.594;11.022;2023-07-13T04:19:07;3.08;;;1.90;;
9761;SDS011;4920;49.594;11.022;2023-07-13T04:21:38;3.28;;;2.00;;
9761;SDS011;4920;49.594;11.022;2023-07-13T04:24:06;7.13;;;2.00;;
9761;SDS011;4920;49.594;11.022;2023-07-13T04:26:35;6.00;;;2.10;;
9761;SDS011;4920;49.594;11.022;2023-07-13T04:29:05;4.05;;;2.13;;
9761;SDS011;4920;49.594;11.022;2023-07-13T04:31:34;2.72;;;1.90;;
9761;SDS011;4920;49.594;11.022;2023-07-13T04:34:03;5.25;;;1.90;;
9761;SDS011;4920;49.594;11.022;2023-07-13T04:36:32;6.28;;;2.13;;
9761;SDS011;4920;49.594;11.022;2023-07-13T04:39:06;3.70;;;2.13;;
9761;SDS011;4920;49.594;11.022;2023-07-13T04:41:35;4.97;;;2.13;;
9761;SDS011;4920;49.594;11.022;2023-07-13T04:44:04;3.50;;;1.92;;
9761;SDS011;4920;49.594;11.022;2023-07-13T04:46:33;2.83;;;1.88;;
9761;SDS011;4920;49.594;11.022;2023-07-13T04:49:01;4.90;;;1.98;;
9761;SDS011;4920;49.594;11.022;2023-07-13T04:51:30;3.90;;;1.85;;
9761;SDS011;4920;49.594;11.022;2023-07-13T04:53:59;2.53;;;1.80;;
9761;SDS011;4920;49.594;11.022;2023-07-13T04:56:29;5.20;;;2.20;;
9761;SDS011;4920;49.594;11.022;2023-07-13T04:58:58;3.85;;;1.80;;
9761;SDS011;4920;49.594;11.022;2023-07-13T05:01:27;7.20;;;2.28;;
9761;SDS011;4920;49.594;11.022;2023-07-13T05:03:56;3.95;;;2.10;;
9761;SDS011;4920;49.594;11.022;2023-07-13T05:06:26;3.53;;;1.75;;
9761;SDS011;4920;49.594;11.022;2023-07-13T05:08:55;4.60;;;1.52;;
9761;SDS011;4920;49.594;11.022;2023-07-13T05:11:24;4.95;;;1.80;;
9761;SDS011;4920;49.594;11.022;2023-07-13T05:13:54;6.15;;;2.17;;
9761;SDS011;4920;49.594;11.022;2023-07-13T05:16:22;4.13;;;1.80;;
9761;SDS011;4920;49.594;11.022;2023-07-13T05:18:51;4.13;;;1.70;;
9761;SDS011;4920;49.594;11.022;2023-07-13T05:21:20;7.07;;;2.20;;
9761;SDS011;4920;49.594;11.022;2023-07-13T05:23:49;5.43;;;2.15;;
9761;SDS011;4920;49.594;11.022;2023-07-13T05:26:18;2.25;;;1.50;;
9761;SDS011;4920;49.594;11.022;2023-07-13T05:28:47;4.45;;;1.70;;
9761;SDS011;4920;49.594;11.022;2023-07-13T05:31:17;4.45;;;1.60;;
9761;SDS011;4920;49.594;11.022;2023-07-13T05:33:46;2.78;;;1.75;;
9761;SDS011;4920;49.594;11.022;2023-07-13T05:36:15;4.28;;;1.90;;
9761;SDS011;4920;49.594;11.022;2023-07-13T05:38:43;2.63;;;1.67;;
9761;SDS011;4920;49.594;11.022;2023-07-13T05:41:12;3.95;;;1.70;;
9761;SDS011;4920;49.594;11.022;2023-07-13T05:43:41;5.15;;;1.50;;
9761;SDS011;4920;49.594;11.022;2023-07-13T05:46:10;3.20;;;1.65;;
9761;SDS011;4920;49.594;11.022;2023-07-13T05:48:40;3.50;;;1.70;;
9761;SDS011;4920;49.594;11.022;2023-07-13T05:51:09;3.30;;;1.48;;
9761;SDS011;4920;49.594;11.022;2023-07-13T05:53:38;6.90;;;1.73;;
9761;SDS011;4920;49.594;11.022;2023-07-13T05:56:07;3.03;;;1.50;;
9761;SDS011;4920;49.594;11.022;2023-07-13T05:58:36;3.55;;;1.60;;
9761;SDS011;4920;49.594;11.022;2023-07-13T06:01:06;3.85;;;1.60;;
9761;SDS011;4920;49.594;11.022;2023-07-13T06:03:39;2.78;;;1.63;;
9761;SDS011;4920;49.594;11.022;2023-07-13T06:06:09;4.18;;;1.60;;
9761;SDS011;4920;49.594;11.022;2023-07-13T06:08:38;5.22;;;1.60;;
9761;SDS011;4920;49.594;11.022;2023-07-13T06:11:07;5.45;;;1.77;;
9761;SDS011;4920;49.594;11.022;2023-07-13T06:13:40;5.00;;;1.63;;
9761;SDS011;4920;49.594;11.022;2023-07-13T06:16:09;5.63;;;1.80;;
9761;SDS011;4920;49.594;11.022;2023-07-13T06:18:40;4.32;;;1.60;;
9761;SDS011;4920;49.594;11.022;2023-07-13T06:21:09;4.15;;;1.83;;
9761;SDS011;4920;49.594;11.022;2023-07-13T06:23:39;3.30;;;1.88;;
9761;SDS011;4920;49.594;11.022;2023-07-13T06:26:08;3.58;;;1.40;;
9761;SDS011;4920;49.594;11.022;2023-07-13T06:28:37;5.15;;;1.67;;
9761;SDS011;4920;49.594;11.022;2023-07-13T06:31:07;5.47;;;1.50;;
9761;SDS011;4920;49.594;11.022;2023-07-13T06:33:39;5.55;;;1.60;;
9761;SDS011;4920;49.594;11.022;2023-07-13T06:36:08;4.32;;;1.70;;
9761;SDS011;4920;49.594;11.022;2023-07-13T06:38:37;3.88;;;1.60;;
9761;SDS011;4920;49.594;11.022;2023-07-13T06:41:07;5.38;;;1.70;;
9761;SDS011;4920;49.594;11.022;2023-07-13T06:43:37;3.00;;;1.40;;
9761;SDS011;4920;49.594;11.022;2023-07-13T06:46:05;4.47;;;1.70;;
9761;SDS011;4920;49.594;11.022;2023-07-13T06:48:34;5.13;;;1.55;;
9761;SDS011;4920;49.594;11.022;2023-07-13T06:51:05;5.85;;;1.63;;
9761;SDS011;4920;49.594;11.022;2023-07-13T06:53:33;4.85;;;1.70;;
9761;SDS011;4920;49.594;11.022;2023-07-13T06:56:02;3.30;;;1.88;;
9761;SDS011;4920;49.594;11.022;2023-07-13T06:58:33;5.90;;;1.75;;
9761;SDS011;4920;49.594;11.022;2023-07-13T07:01:02;4.68;;;1.77;;
9761;SDS011;4920;49.594;11.022;2023-07-13T07:03:34;3.05;;;1.63;;
9761;SDS011;4920;49.594;11.022;2023-07-13T07:06:06;7.18;;;1.90;;
9761;SDS011;4920;49.594;11.022;2023-07-13T07:08:40;4.65;;;1.77;;
9761;SDS011;4920;49.594;11.022;2023-07-13T07:11:11;4.20;;;1.60;;
9761;SDS011;4920;49.594;11.022;2023-07-13T07:13:42;5.75;;;1.75;;
9761;SDS011;4920;49.594;11.022;2023-07-13T07:16:11;5.07;;;1.80;;
9761;SDS011;4920;49.594;11.022;2023-07-13T07:18:40;5.38;;;1.73;;
9761;SDS011;4920;49.594;11.022;2023-07-13T07:21:10;4.32;;;2.00;;
9761;SDS011;4920;49.594;11.022;2023-07-13T07:23:39;7.70;;;1.65;;
9761;SDS011;4920;49.594;11.022;2023-07-13T07:26:08;3.90;;;1.67;;
9761;SDS011;4920;49.594;11.022;2023-07-13T07:28:37;3.80;;;1.52;;
9761;SDS011;4920;49.594;11.022;2023-07-13T07:31:09;5.03;;;1.60;;
9761;SDS011;4920;49.594;11.022;2023-07-13T07:33:41;4.30;;;1.60;;
9761;SDS011;4920;49.594;11.022;2023-07-13T07:36:11;6.78;;;1.70;;
9761;SDS011;4920;49.594;11.022;2023-07-13T07:38:43;6.50;;;1.80;;
9761;SDS011;4920;49.594;11.022;2023-07-13T07:41:12;3.85;;;1.70;;
9761;SDS011;4920;49.594;11.022;2023-07-13T07:43:44;7.82;;;1.80;;
9761;SDS011;4920;49.594;11.022;2023-07-13T07:46:12;4.43;;;1.63;;
9761;SDS011;4920;49.594;11.022;2023-07-13T07:48:42;4.70;;;1.67;;
9761;SDS011;4920;49.594;11.022;2023-07-13T07:51:12;3.63;;;1.67;;
9761;SDS011;4920;49.594;11.022;2023-07-13T07:53:42;5.95;;;1.50;;
9761;SDS011;4920;49.594;11.022;2023-07-13T07:56:10;4.75;;;1.50;;
9761;SDS011;4920;49.594;11.022;2023-07-13T07:58:42;4.00;;;1.48;;
9761;SDS011;4920;49.594;11.022;2023-07-13T08:01:14;3.08;;;1.58;;
9761;SDS011;4920;49.594;11.022;2023-07-13T08:03:46;4.32;;;1.70;;
9761;SDS011;4920;49.594;11.022;2023-07-13T08:06:19;3.05;;;1.40;;
9761;SDS011;4920;49.594;11.022;2023-07-13T08:08:51;3.47;;;1.40;;
9761;SDS011;4920;49.594;11.022;2023-07-13T08:11:20;4.07;;;1.70;;
9761;SDS011;4920;49.594;11.022;2023-07-13T08:13:52;7.82;;;1.65;;
9761;SDS011;4920;49.594;11.022;2023-07-13T08:16:22;5.55;;;1.70;;
9761;SDS011;4920;49.594;11.022;2023-07-13T08:18:51;3.83;;;1.60;;
9761;SDS011;4920;49.594;11.022;2023-07-13T08:21:21;4.88;;;1.60;;
9761;SDS011;4920;49.594;11.022;2023-07-13T08:23:50;6.32;;;1.50;;
9761;SDS011;4920;49.594;11.022;2023-07-13T08:26:19;5.40;;;1.50;;
9761;SDS011;4920;49.594;11.022;2023-07-13T08:28:48;3.20;;;1.48;;
9761;SDS011;4920;49.594;11.022;2023-07-13T08:31:17;2.60;;;1.60;;
9761;SDS011;4920;49.594;11.022;2023-07-13T08:33:46;3.78;;;1.33;;
9761;SDS011;4920;49.594;11.022;2023-07-13T08:36:15;4.10;;;1.38;;
9761;SDS011;4920;49.594;11.022;2023-07-13T08:38:45;5.18;;;1.25;;
9761;SDS011;4920;49.594;11.022;2023-07-13T08:41:14;2.53;;;1.27;;
9761;SDS011;4920;49.594;11.022;2023-07-13T08:43:45;6.32;;;1.58;;
9761;SDS011;4920;49.594;11.022;2023-07-13T08:46:17;1.70;;;1.10;;
9761;SDS011;4920;49.594;11.022;2023-07-13T08:48:52;5.22;;;1.40;;
9761;SDS011;4920;49.594;11.022;2023-07-13T08:51:31;3.28;;;1.30;;
9761;SDS011;4920;49.594;11.022;2023-07-13T08:54:10;5.20;;;1.40;;
9761;SDS011;4920;49.594;11.022;2023-07-13T08:56:46;3.00;;;1.30;;
9761;SDS011;4920;49.594;11.022;2023-07-13T08:59:16;4.47;;;1.33;;
9761;SDS011;4920;49.594;11.022;2023-07-13T09:01:53;6.28;;;1.55;;
9761;SDS011;4920;49.594;11.022;2023-07-13T09:04:30;3.70;;;1.38;;
9761;SDS011;4920;49.594;11.022;2023-07-13T09:07:05;4.55;;;1.20;;
9761;SDS011;4920;49.594;11.022;2023-07-13T09:09:46;4.53;;;1.30;;
9761;SDS011;4920;49.594;11.022;2023-07-13T09:12:25;2.22;;;1.15;;
9761;SDS011;4920;49.594;11.022;2023-07-13T09:15:02;3.28;;;1.30;;
9761;SDS011;4920;49.594;11.022;2023-07-13T09:17:33;4.65;;;1.33;;
9761;SDS011;4920;49.594;11.022;2023-07-13T09:20:17;3.10;;;1.30;;
9761;SDS011;4920;49.594;11.022;2023-07-13T09:22:51;3.40;;;1.10;;
9761;SDS011;4920;49.594;11.022;2023-07-13T09:25:24;2.55;;;1.20;;
9761;SDS011;4920;49.594;11.022;2023-07-13T09:27:58;3.42;;;1.42;;
9761;SDS011;4920;49.594;11.022;2023-07-13T09:30:32;2.42;;;1.30;;
9761;SDS011;4920;49.594;11.022;2023-07-13T09:33:05;4.00;;;1.27;;
9761;SDS011;4920;49.594;11.022;2023-07-13T09:35:34;3.28;;;1.17;;
9761;SDS011;4920;49.594;11.022;2023-07-13T09:38:09;2.17;;;1.25;;
9761;SDS011;4920;49.594;11.022;2023-07-13T09:40:46;2.30;;;1.27;;
9761;SDS011;4920;49.594;11.022;2023-07-13T09:43:28;3.40;;;1.35;;
9761;SDS011;4920;49.594;11.022;2023-07-13T09:45:56;3.17;;;1.20;;
9761;SDS011;4920;49.594;11.022;2023-07-13T09:48:32;3.83;;;1.27;;
9761;SDS011;4920;49.594;11.022;2023-07-13T09:51:06;2.92;;;1.40;;
9761;SDS011;4920;49.594;11.022;2023-07-13T09:53:44;4.28;;;1.30;;
9761;SDS011;4920;49.594;11.022;2023-07-13T09:56:21;2.58;;;1.33;;
9761;SDS011;4920;49.594;11.022;2023-07-13T09:58:51;4.32;;;1.30;;
9761;SDS011;4920;49.594;11.022;2023-07-13T10:01:31;3.50;;;1.30;;
9761;SDS011;4920;49.594;11.022;2023-07-13T10:04:02;2.95;;;1.08;;
9761;SDS011;4920;49.594;11.022;2023-07-13T10:06:40;3.25;;;1.13;;
9761;SDS011;4920;49.594;11.022;2023-07-13T10:09:13;3.10;;;1.10;;
9761;SDS011;4920;49.594;11.022;2023-07-13T10:11:45;2.58;;;1.15;;
9761;SDS011;4920;49.594;11.022;2023-07-13T10:14:15;3.40;;;1.40;;
9761;SDS011;4920;49.594;11.022;2023-07-13T10:16:46;2.58;;;1.33;;
9761;SDS011;4920;49.594;11.022;2023-07-13T10:19:17;3.65;;;1.65;;
9761;SDS011;4920;49.594;11.022;2023-07-13T10:21:54;4.18;;;1.40;;
9761;SDS011;4920;49.594;11.022;2023-07-13T10:24:26;4.30;;;1.48;;
9761;SDS011;4920;49.594;11.022;2023-07-13T10:27:03;2.65;;;1.30;;
9761;SDS011;4920;49.594;11.022;2023-07-13T10:29:40;2.70;;;1.38;;
9761;SDS011;4920;49.594;11.022;2023-07-13T10:32:13;2.85;;;1.35;;
9761;SDS011;4920;49.594;11.022;2023-07-13T10:34:43;4.85;;;1.40;;
9761;SDS011;4920;49.594;11.022;2023-07-13T10:37:18;4.47;;;1.38;;
9761;SDS011;4920;49.594;11.022;2023-07-13T10:39:51;3.53;;;1.50;;
9761;SDS011;4920;49.594;11.022;2023-07-13T10:42:25;4.30;;;1.65;;
9761;SDS011;4920;49.594;11.022;2023-07-13T10:44:57;3.72;;;1.30;;
9761;SDS011;4920;49.594;11.022;2023-07-13T10:47:26;4.00;;;1.20;;
9761;SDS011;4920;49.594;11.022;2023-07-13T10:49:56;3.17;;;1.42;;
9761;SDS011;4920;49.594;11.022;2023-07-13T10:52:43;3.35;;;1.30;;
9761;SDS011;4920;49.594;11.022;2023-07-13T10:55:37;5.05;;;1.50;;
9761;SDS011;4920;49.594;11.022;2023-07-13T10:58:20;2.75;;;1.42;;
9761;SDS011;4920;49.594;11.022;2023-07-13T11:00:53;3.40;;;1.40;;
9761;SDS011;4920;49.594;11.022;2023-07-13T11:03:30;3.47;;;1.13;;
9761;SDS011;4920;49.594;11.022;2023-07-13T11:06:07;3.10;;;1.27;;
9761;SDS011;4920;49.594;11.022;2023-07-13T11:08:51;4.68;;;1.40;;
9761;SDS011;4920;49.594;11.022;2023-07-13T11:11:32;3.83;;;1.65;;
9761;SDS011;4920;49.594;11.022;2023-07-13T11:14:14;6.72;;;1.50;;
9761;SDS011;4920;49.594;11.022;2023-07-13T11:16:55;2.45;;;1.38;;
9761;SDS011;4920;49.594;11.022;2023-07-13T11:19:28;3.50;;;1.52;;
9761;SDS011;4920;49.594;11.022;2023-07-13T11:22:20;3.10;;;1.63;;
9761;SDS011;4920;49.594;11.022;2023-07-13T11:24:53;7.45;;;1.70;;
9761;SDS011;4920;49.594;11.022;2023-07-13T11:27:34;3.80;;;1.10;;
9761;SDS011;4920;49.594;11.022;2023-07-13T11:35:57;5.25;;;1.33;;
9761;SDS011;4920;49.594;11.022;2023-07-13T11:38:29;5.22;;;1.70;;
9761;SDS011;4920;49.594;11.022;2023-07-13T11:41:02;2.97;;;1.60;;
9761;SDS011;4920;49.594;11.022;2023-07-13T11:43:32;3.13;;;1.60;;
9761;SDS011;4920;49.594;11.022;2023-07-13T11:46:18;3.10;;;1.50;;
9761;SDS011;4920;49.594;11.022;2023-07-13T11:48:48;3.72;;;1.63;;
9761;SDS011;4920;49.594;11.022;2023-07-13T11:51:19;5.25;;;1.55;;
9761;SDS011;4920;49.594;11.022;2023-07-13T11:53:51;3.17;;;1.33;;
9761;SDS011;4920;49.594;11.022;2023-07-13T11:56:24;4.70;;;1.52;;
9761;SDS011;4920;49.594;11.022;2023-07-13T11:58:54;5.38;;;1.48;;
9761;SDS011;4920;49.594;11.022;2023-07-13T12:01:27;5.47;;;1.40;;
9761;SDS011;4920;49.594;11.022;2023-07-13T12:04:00;4.43;;;1.52;;
9761;SDS011;4920;49.594;11.022;2023-07-13T12:06:31;4.78;;;1.50;;
9761;SDS011;4920;49.594;11.022;2023-07-13T12:09:08;5.95;;;1.52;;
9761;SDS011;4920;49.594;11.022;2023-07-13T12:11:40;3.47;;;1.60;;
9761;SDS011;4920;49.594;11.022;2023-07-13T12:14:13;2.40;;;1.40;;
9761;SDS011;4920;49.594;11.022;2023-07-13T12:16:44;5.68;;;1.58;;
9761;SDS011;4920;49.594;11.022;2023-07-13T12:19:16;4.32;;;1.60;;
9761;SDS011;4920;49.594;11.022;2023-07-13T12:21:49;7.85;;;1.80;;
9761;SDS011;4920;49.594;11.022;2023-07-13T12:24:20;5.57;;;1.63;;
9761;SDS011;4920;49.594;11.022;2023-07-13T12:26:51;3.08;;;1.60;;
9761;SDS011;4920;49.594;11.022;2023-07-13T12:29:21;4.75;;;1.65;;
9761;SDS011;4920;49.594;11.022;2023-07-13T12:31:51;4.07;;;1.50;;
9761;SDS011;4920;49.594;11.022;2023-07-13T12:34:20;4.63;;;1.50;;
9761;SDS011;4920;49.594;11.022;2023-07-13T12:36:51;3.00;;;1.35;;
9761;SDS011;4920;49.594;11.022;2023-07-13T12:39:22;2.97;;;1.42;;
9761;SDS011;4920;49.594;11.022;2023-07-13T12:42:09;5.35;;;1.42;;
9761;SDS011;4920;49.594;11.022;2023-07-13T12:44:48;4.28;;;1.50;;
9761;SDS011;4920;49.594;11.022;2023-07-13T12:47:19;3.75;;;1.40;;
9761;SDS011;4920;49.594;11.022;2023-07-13T12:49:49;4.18;;;1.75;;
9761;SDS011;4920;49.594;11.022;2023-07-13T12:52:21;10.85;;;2.17;;
9761;SDS011;4920;49.594;11.022;2023-07-13T12:54:52;4.70;;;1.60;;
9761;SDS011;4920;49.594;11.022;2023-07-13T12:57:32;4.32;;;1.60;;
9761;SDS011;4920;49.594;11.022;2023-07-13T13:00:09;5.20;;;1.50;;
9761;SDS011;4920;49.594;11.022;2023-07-13T13:02:53;2.40;;;1.30;;
9761;SDS011;4920;49.594;11.022;2023-07-13T13:05:44;3.40;;;1.40;;
9761;SDS011;4920;49.594;11.022;2023-07-13T13:08:13;4.13;;;1.50;;
9761;SDS011;4920;49.594;11.022;2023-07-13T13:10:42;2.78;;;1.20;;
9761;SDS011;4920;49.594;11.022;2023-07-13T13:13:12;6.80;;;2.30;;
9761;SDS011;4920;49.594;11.022;2023-07-13T13:15:41;3.58;;;1.60;;
9761;SDS011;4920;49.594;11.022;2023-07-13T13:18:16;3.80;;;1.40;;
9761;SDS011;4920;49.594;11.022;2023-07-13T13:20:46;3.03;;;1.40;;
9761;SDS011;4920;49.594;11.022;2023-07-13T13:23:16;3.63;;;1.60;;
9761;SDS011;4920;49.594;11.022;2023-07-13T13:25:47;5.03;;;1.73;;
9761;SDS011;4920;49.594;11.022;2023-07-13T13:28:18;6.32;;;1.55;;
9761;SDS011;4920;49.594;11.022;2023-07-13T13:30:48;5.57;;;1.52;;
9761;SDS011;4920;49.594;11.022;2023-07-13T13:33:20;5.22;;;1.40;;
9761;SDS011;4920;49.594;11.022;2023-07-13T13:35:50;4.15;;;1.40;;
9761;SDS011;4920;49.594;11.022;2023-07-13T13:38:20;5.15;;;1.58;;
9761;SDS011;4920;49.594;11.022;2023-07-13T13:40:52;2.90;;;1.67;;
9761;SDS011;4920;49.594;11.022;2023-07-13T13:43:22;2.42;;;1.40;;
9761;SDS011;4920;49.594;11.022;2023-07-13T13:45:55;3.50;;;1.52;;
9761;SDS011;4920;49.594;11.022;2023-07-13T13:48:29;6.28;;;1.80;;
9761;SDS011;4920;49.594;11.022;2023-07-13T13:51:00;2.65;;;1.30;;
9761;SDS011;4920;49.594;11.022;2023-07-13T13:53:32;5.68;;;1.80;;
9761;SDS011;4920;49.594;11.022;2023-07-13T13:56:01;2.53;;;1.45;;
9761;SDS011;4920;49.594;11.022;2023-07-13T13:58:29;4.60;;;1.60;;
9761;SDS011;4920;49.594;11.022;2023-07-13T14:00:58;6.13;;;1.70;;
9761;SDS011;4920;49.594;11.022;2023-07-13T14:03:29;3.50;;;1.67;;
9761;SDS011;4920;49.594;11.022;2023-07-13T14:05:57;4.35;;;1.50;;
9761;SDS011;4920;49.594;11.022;2023-07-13T14:08:27;3.80;;;1.52;;
9761;SDS011;4920;49.594;11.022;2023-07-13T14:10:56;2.78;;;1.40;;
9761;SDS011;4920;49.594;11.022;2023-07-13T14:13:39;3.28;;;1.30;;
9761;SDS011;4920;49.594;11.022;2023-07-13T14:16:14;5.97;;;1.63;;
9761;SDS011;4920;49.594;11.022;2023-07-13T14:18:47;4.10;;;1.58;;
9761;SDS011;4920;49.594;11.022;2023-07-13T14:21:17;3.25;;;1.63;;
9761;SDS011;4920;49.594;11.022;2023-07-13T14:23:49;4.45;;;1.70;;
9761;SDS011;4920;49.594;11.022;2023-07-13T14:26:18;5.28;;;1.90;;
9761;SDS011;4920;49.594;11.022;2023-07-13T14:28:49;7.43;;;1.92;;
9761;SDS011;4920;49.594;11.022;2023-07-13T14:31:20;5.97;;;2.13;;
9761;SDS011;4920;49.594;11.022;2023-07-13T14:33:57;4.93;;;1.70;;
9761;SDS011;4920;49.594;11.022;2023-07-13T14:36:27;4.93;;;2.38;;
9761;SDS011;4920;49.594;11.022;2023-07-13T14:38:58;4.05;;;1.60;;
9761;SDS011;4920;49.594;11.022;2023-07-13T14:41:28;4.82;;;1.48;;
9761;SDS011;4920;49.594;11.022;2023-07-13T14:43:57;5.90;;;1.80;;
9761;SDS011;4920;49.594;11.022;2023-07-13T14:46:27;2.13;;;1.33;;
9761;SDS011;4920;49.594;11.022;2023-07-13T14:49:01;4.70;;;1.60;;
9761;SDS011;4920;49.594;11.022;2023-07-13T14:51:32;4.72;;;1.80;;
9761;SDS011;4920;49.594;11.022;2023-07-13T14:54:03;2.67;;;1.33;;
9761;SDS011;4920;49.594;11.022;2023-07-13T14:56:33;2.92;;;1.60;;
9761;SDS011;4920;49.594;11.022;2023-07-13T14:59:02;3.05;;;1.40;;
9761;SDS011;4920;49.594;11.022;2023-07-13T15:01:31;4.22;;;1.70;;
9761;SDS011;4920;49.594;11.022;2023-07-13T15:04:02;2.90;;;1.60;;
9761;SDS011;4920;49.594;11.022;2023-07-13T15:06:53;4.68;;;1.63;;
9761;SDS011;4920;49.594;11.022;2023-07-13T15:09:23;3.88;;;1.60;;
9761;SDS011;4920;49.594;11.022;2023-07-13T15:11:54;5.60;;;1.77;;
9761;SDS011;4920;49.594;11.022;2023-07-13T15:14:23;3.45;;;1.80;;
9761;SDS011;4920;49.594;11.022;2023-07-13T15:16:54;3.28;;;1.60;;
9761;SDS011;4920;49.594;11.022;2023-07-13T15:19:25;3.00;;;1.50;;
9761;SDS011;4920;49.594;11.022;2023-07-13T15:21:55;4.03;;;1.58;;
9761;SDS011;4920;49.594;11.022;2023-07-13T15:24:25;3.28;;;1.40;;
9761;SDS011;4920;49.594;11.022;2023-07-13T15:26:54;5.07;;;1.58;;
9761;SDS011;4920;49.594;11.022;2023-07-13T15:29:23;4.03;;;1.55;;
9761;SDS011;4920;49.594;11.022;2023-07-13T15:31:51;6.57;;;2.05;;